sensor_id;sensor_type;location;lat;lon;timestamp;temperature;humidity
72440;DHT22;60446;50.752;4.352;2023-08-21T00:01:00;21.20;65.40
72440;DHT22;60446;50.752;4.352;2023-08-21T00:03:28;21.10;66.00
72440;DHT22;60446;50.752;4.352;2023-08-21T00:05:56;21.10;66.20
72440;DHT22;60446;50.752;4.352;2023-08-21T00:08:24;21.00;65.60
72440;DHT22;60446;50.752;4.352;2023-08-21T00:10:51;21.00;66.40
72440;DHT22;60446;50.752;4.352;2023-08-21T00:13:18;20.90;65.70
72440;DHT22;60446;50.752;4.352;2023-08-21T00:15:46;20.90;66.70
72440;DHT22;60446;50.752;4.352;2023-08-21T00:18:13;20.90;67.30
72440;DHT22;60446;50.752;4.352;2023-08-21T00:20:41;20.80;67.50
72440;DHT22;60446;50.752;4.352;2023-08-21T00:23:09;20.70;67.70
72440;DHT22;60446;50.752;4.352;2023-08-21T00:25:36;20.70;67.40
72440;DHT22;60446;50.752;4.352;2023-08-21T00:28:04;20.70;68.20
72440;DHT22;60446;50.752;4.352;2023-08-21T00:30:32;20.60;68.60
72440;DHT22;60446;50.752;4.352;2023-08-21T00:33:00;20.60;68.70
72440;DHT22;60446;50.752;4.352;2023-08-21T00:35:27;20.60;68.70
72440;DHT22;60446;50.752;4.352;2023-08-21T00:37:54;20.50;68.20
72440;DHT22;60446;50.752;4.352;2023-08-21T00:40:22;20.50;68.50
72440;DHT22;60446;50.752;4.352;2023-08-21T00:42:49;20.50;69.00
72440;DHT22;60446;50.752;4.352;2023-08-21T00:45:16;20.50;69.00
72440;DHT22;60446;50.752;4.352;2023-08-21T00:47:43;20.40;69.50
72440;DHT22;60446;50.752;4.352;2023-08-21T00:50:11;20.30;69.90
72440;DHT22;60446;50.752;4.352;2023-08-21T00:52:40;20.30;70.40
72440;DHT22;60446;50.752;4.352;2023-08-21T00:55:08;20.30;70.50
72440;DHT22;60446;50.752;4.352;2023-08-21T00:57:36;20.30;70.60
72440;DHT22;60446;50.752;4.352;2023-08-21T01:00:06;20.20;70.70
72440;DHT22;60446;50.752;4.352;2023-08-21T01:02:37;20.20;70.90
72440;DHT22;60446;50.752;4.352;2023-08-21T01:05:08;20.10;71.00
72440;DHT22;60446;50.752;4.352;2023-08-21T01:07:41;20.00;70.30
72440;DHT22;60446;50.752;4.352;2023-08-21T01:10:41;20.00;70.10
72440;DHT22;60446;50.752;4.352;2023-08-21T01:13:56;20.10;69.70
72440;DHT22;60446;50.752;4.352;2023-08-21T01:16:31;20.00;69.80
72440;DHT22;60446;50.752;4.352;2023-08-21T01:19:02;20.00;70.10
72440;DHT22;60446;50.752;4.352;2023-08-21T01:21:31;20.00;70.20
72440;DHT22;60446;50.752;4.352;2023-08-21T01:23:58;19.90;70.70
72440;DHT22;60446;50.752;4.352;2023-08-21T01:26:25;19.80;71.20
72440;DHT22;60446;50.752;4.352;2023-08-21T01:28:52;19.80;71.60
72440;DHT22;60446;50.752;4.352;2023-08-21T01:31:29;19.70;71.80
72440;DHT22;60446;50.752;4.352;2023-08-21T01:34:00;19.70;72.10
72440;DHT22;60446;50.752;4.352;2023-08-21T01:36:31;19.60;72.40
72440;DHT22;60446;50.752;4.352;2023-08-21T01:38:58;19.50;72.50
72440;DHT22;60446;50.752;4.352;2023-08-21T01:41:25;19.50;72.60
72440;DHT22;60446;50.752;4.352;2023-08-21T01:43:53;19.40;72.70
72440;DHT22;60446;50.752;4.352;2023-08-21T01:46:21;19.40;72.60
72440;DHT22;60446;50.752;4.352;2023-08-21T01:48:48;19.40;72.50
72440;DHT22;60446;50.752;4.352;2023-08-21T01:51:15;19.40;72.60
72440;DHT22;60446;50.752;4.352;2023-08-21T01:53:43;19.30;73.00
72440;DHT22;60446;50.752;4.352;2023-08-21T01:56:11;19.20;73.30
72440;DHT22;60446;50.752;4.352;2023-08-21T01:58:38;19.30;73.40
72440;DHT22;60446;50.752;4.352;2023-08-21T02:01:05;19.20;73.50
72440;DHT22;60446;50.752;4.352;2023-08-21T02:03:33;19.10;73.60
72440;DHT22;60446;50.752;4.352;2023-08-21T02:06:00;19.10;73.70
72440;DHT22;60446;50.752;4.352;2023-08-21T02:08:31;19.10;73.80
72440;DHT22;60446;50.752;4.352;2023-08-21T02:11:02;19.10;73.70
72440;DHT22;60446;50.752;4.352;2023-08-21T02:13:29;19.00;73.60
72440;DHT22;60446;50.752;4.352;2023-08-21T02:15:56;19.00;73.80
72440;DHT22;60446;50.752;4.352;2023-08-21T02:18:24;18.90;73.80
72440;DHT22;60446;50.752;4.352;2023-08-21T02:20:51;18.90;74.30
72440;DHT22;60446;50.752;4.352;2023-08-21T02:23:18;18.80;74.40
72440;DHT22;60446;50.752;4.352;2023-08-21T02:25:45;18.80;74.50
72440;DHT22;60446;50.752;4.352;2023-08-21T02:28:12;18.80;74.50
72440;DHT22;60446;50.752;4.352;2023-08-21T02:30:41;18.80;74.70
72440;DHT22;60446;50.752;4.352;2023-08-21T02:33:08;18.70;74.70
72440;DHT22;60446;50.752;4.352;2023-08-21T02:35:38;18.70;74.60
72440;DHT22;60446;50.752;4.352;2023-08-21T02:38:05;18.70;74.70
72440;DHT22;60446;50.752;4.352;2023-08-21T02:40:35;18.60;75.20
72440;DHT22;60446;50.752;4.352;2023-08-21T02:43:02;18.50;75.70
72440;DHT22;60446;50.752;4.352;2023-08-21T02:45:30;18.50;75.90
72440;DHT22;60446;50.752;4.352;2023-08-21T02:47:58;18.50;75.80
72440;DHT22;60446;50.752;4.352;2023-08-21T02:50:25;18.60;75.80
72440;DHT22;60446;50.752;4.352;2023-08-21T02:52:52;18.60;75.70
72440;DHT22;60446;50.752;4.352;2023-08-21T02:55:20;18.70;74.90
72440;DHT22;60446;50.752;4.352;2023-08-21T02:57:47;18.70;74.90
72440;DHT22;60446;50.752;4.352;2023-08-21T03:00:15;18.70;75.00
72440;DHT22;60446;50.752;4.352;2023-08-21T03:02:42;18.60;75.30
72440;DHT22;60446;50.752;4.352;2023-08-21T03:05:11;18.60;75.40
72440;DHT22;60446;50.752;4.352;2023-08-21T03:07:38;18.50;75.30
72440;DHT22;60446;50.752;4.352;2023-08-21T03:10:06;18.50;75.30
72440;DHT22;60446;50.752;4.352;2023-08-21T03:12:34;18.40;75.40
72440;DHT22;60446;50.752;4.352;2023-08-21T03:15:03;18.40;75.60
72440;DHT22;60446;50.752;4.352;2023-08-21T03:17:31;18.30;75.50
72440;DHT22;60446;50.752;4.352;2023-08-21T03:19:58;18.30;75.70
72440;DHT22;60446;50.752;4.352;2023-08-21T03:22:26;18.20;76.10
72440;DHT22;60446;50.752;4.352;2023-08-21T03:24:53;18.10;76.30
72440;DHT22;60446;50.752;4.352;2023-08-21T03:27:22;18.10;76.10
72440;DHT22;60446;50.752;4.352;2023-08-21T03:29:50;18.10;76.20
72440;DHT22;60446;50.752;4.352;2023-08-21T03:32:18;18.10;76.00
72440;DHT22;60446;50.752;4.352;2023-08-21T03:34:46;18.10;76.10
72440;DHT22;60446;50.752;4.352;2023-08-21T03:37:14;18.10;76.10
72440;DHT22;60446;50.752;4.352;2023-08-21T03:39:41;18.10;76.10
72440;DHT22;60446;50.752;4.352;2023-08-21T03:42:10;18.00;76.10
72440;DHT22;60446;50.752;4.352;2023-08-21T03:44:39;17.90;76.20
72440;DHT22;60446;50.752;4.352;2023-08-21T03:47:07;18.00;76.20
72440;DHT22;60446;50.752;4.352;2023-08-21T03:49:43;17.90;76.30
72440;DHT22;60446;50.752;4.352;2023-08-21T03:52:10;17.90;76.40
72440;DHT22;60446;50.752;4.352;2023-08-21T03:54:38;17.80;76.50
72440;DHT22;60446;50.752;4.352;2023-08-21T03:57:05;17.80;76.50
72440;DHT22;60446;50.752;4.352;2023-08-21T03:59:34;17.80;76.50
72440;DHT22;60446;50.752;4.352;2023-08-21T04:02:01;17.70;76.80
72440;DHT22;60446;50.752;4.352;2023-08-21T04:04:28;17.70;76.60
72440;DHT22;60446;50.752;4.352;2023-08-21T04:06:56;17.70;76.60
72440;DHT22;60446;50.752;4.352;2023-08-21T04:09:23;17.60;76.60
72440;DHT22;60446;50.752;4.352;2023-08-21T04:11:50;17.60;76.70
72440;DHT22;60446;50.752;4.352;2023-08-21T04:14:17;17.60;76.80
72440;DHT22;60446;50.752;4.352;2023-08-21T04:16:44;17.60;76.90
72440;DHT22;60446;50.752;4.352;2023-08-21T04:19:11;17.60;76.90
72440;DHT22;60446;50.752;4.352;2023-08-21T04:21:39;17.50;76.80
72440;DHT22;60446;50.752;4.352;2023-08-21T04:24:07;17.50;76.70
72440;DHT22;60446;50.752;4.352;2023-08-21T04:26:34;17.50;76.90
72440;DHT22;60446;50.752;4.352;2023-08-21T04:29:01;17.50;77.00
72440;DHT22;60446;50.752;4.352;2023-08-21T04:31:30;17.40;77.30
72440;DHT22;60446;50.752;4.352;2023-08-21T04:33:57;17.40;77.30
72440;DHT22;60446;50.752;4.352;2023-08-21T04:36:25;17.40;76.80
72440;DHT22;60446;50.752;4.352;2023-08-21T04:38:52;17.40;77.10
72440;DHT22;60446;50.752;4.352;2023-08-21T04:41:20;17.40;77.00
72440;DHT22;60446;50.752;4.352;2023-08-21T04:43:48;17.30;77.50
72440;DHT22;60446;50.752;4.352;2023-08-21T04:46:16;17.30;77.60
72440;DHT22;60446;50.752;4.352;2023-08-21T04:48:44;17.30;77.50
72440;DHT22;60446;50.752;4.352;2023-08-21T04:51:12;17.30;77.40
72440;DHT22;60446;50.752;4.352;2023-08-21T04:53:40;17.30;77.50
72440;DHT22;60446;50.752;4.352;2023-08-21T04:56:11;17.30;77.60
72440;DHT22;60446;50.752;4.352;2023-08-21T04:58:39;17.20;77.70
72440;DHT22;60446;50.752;4.352;2023-08-21T05:01:07;17.20;77.40
72440;DHT22;60446;50.752;4.352;2023-08-21T05:03:38;17.20;77.40
72440;DHT22;60446;50.752;4.352;2023-08-21T05:06:05;17.20;77.80
72440;DHT22;60446;50.752;4.352;2023-08-21T05:08:33;17.20;77.60
72440;DHT22;60446;50.752;4.352;2023-08-21T05:11:04;17.20;77.70
72440;DHT22;60446;50.752;4.352;2023-08-21T05:13:33;17.20;77.70
72440;DHT22;60446;50.752;4.352;2023-08-21T05:16:01;17.30;77.80
72440;DHT22;60446;50.752;4.352;2023-08-21T05:18:33;17.30;77.30
72440;DHT22;60446;50.752;4.352;2023-08-21T05:21:00;17.30;77.60
72440;DHT22;60446;50.752;4.352;2023-08-21T05:23:28;17.40;78.00
72440;DHT22;60446;50.752;4.352;2023-08-21T05:26:00;17.40;77.70
72440;DHT22;60446;50.752;4.352;2023-08-21T05:28:28;17.40;77.40
72440;DHT22;60446;50.752;4.352;2023-08-21T05:30:56;17.40;78.10
72440;DHT22;60446;50.752;4.352;2023-08-21T05:33:24;17.50;78.10
72440;DHT22;60446;50.752;4.352;2023-08-21T05:35:51;17.40;78.20
72440;DHT22;60446;50.752;4.352;2023-08-21T05:38:19;17.40;78.50
72440;DHT22;60446;50.752;4.352;2023-08-21T05:40:48;17.50;78.30
72440;DHT22;60446;50.752;4.352;2023-08-21T05:43:21;17.50;78.20
72440;DHT22;60446;50.752;4.352;2023-08-21T05:45:49;17.50;78.10
72440;DHT22;60446;50.752;4.352;2023-08-21T05:48:16;17.50;78.30
72440;DHT22;60446;50.752;4.352;2023-08-21T05:50:44;17.60;78.10
72440;DHT22;60446;50.752;4.352;2023-08-21T05:53:11;17.70;78.10
72440;DHT22;60446;50.752;4.352;2023-08-21T05:55:39;17.70;78.20
72440;DHT22;60446;50.752;4.352;2023-08-21T05:58:06;17.80;78.70
72440;DHT22;60446;50.752;4.352;2023-08-21T06:00:34;17.90;78.40
72440;DHT22;60446;50.752;4.352;2023-08-21T06:03:03;18.00;78.40
72440;DHT22;60446;50.752;4.352;2023-08-21T06:05:51;18.10;77.70
72440;DHT22;60446;50.752;4.352;2023-08-21T06:08:18;18.30;74.60
72440;DHT22;60446;50.752;4.352;2023-08-21T06:10:51;18.40;73.70
72440;DHT22;60446;50.752;4.352;2023-08-21T06:13:19;18.50;74.10
72440;DHT22;60446;50.752;4.352;2023-08-21T06:15:49;18.70;73.40
72440;DHT22;60446;50.752;4.352;2023-08-21T06:18:17;18.80;73.40
72440;DHT22;60446;50.752;4.352;2023-08-21T06:20:44;19.00;72.00
72440;DHT22;60446;50.752;4.352;2023-08-21T06:23:12;19.00;71.50
72440;DHT22;60446;50.752;4.352;2023-08-21T06:25:39;19.10;71.90
72440;DHT22;60446;50.752;4.352;2023-08-21T06:28:06;19.10;73.20
72440;DHT22;60446;50.752;4.352;2023-08-21T06:30:34;19.10;71.60
72440;DHT22;60446;50.752;4.352;2023-08-21T06:33:01;19.20;71.30
72440;DHT22;60446;50.752;4.352;2023-08-21T06:35:29;19.20;71.90
72440;DHT22;60446;50.752;4.352;2023-08-21T06:37:56;19.20;70.60
72440;DHT22;60446;50.752;4.352;2023-08-21T06:40:23;19.20;70.50
72440;DHT22;60446;50.752;4.352;2023-08-21T06:42:50;19.30;70.80
72440;DHT22;60446;50.752;4.352;2023-08-21T06:45:20;19.30;70.70
72440;DHT22;60446;50.752;4.352;2023-08-21T06:47:48;19.30;70.10
72440;DHT22;60446;50.752;4.352;2023-08-21T06:50:17;19.40;69.90
72440;DHT22;60446;50.752;4.352;2023-08-21T06:52:44;19.40;70.90
72440;DHT22;60446;50.752;4.352;2023-08-21T06:55:12;19.40;69.80
72440;DHT22;60446;50.752;4.352;2023-08-21T06:57:39;19.40;70.10
72440;DHT22;60446;50.752;4.352;2023-08-21T07:00:07;19.60;70.30
72440;DHT22;60446;50.752;4.352;2023-08-21T07:02:34;19.60;70.50
72440;DHT22;60446;50.752;4.352;2023-08-21T07:05:02;19.60;70.40
72440;DHT22;60446;50.752;4.352;2023-08-21T07:07:30;19.70;69.30
72440;DHT22;60446;50.752;4.352;2023-08-21T07:09:57;19.70;69.90
72440;DHT22;60446;50.752;4.352;2023-08-21T07:12:24;19.70;68.70
72440;DHT22;60446;50.752;4.352;2023-08-21T07:14:51;19.80;69.20
72440;DHT22;60446;50.752;4.352;2023-08-21T07:17:19;19.90;69.70
72440;DHT22;60446;50.752;4.352;2023-08-21T07:19:46;20.00;68.10
72440;DHT22;60446;50.752;4.352;2023-08-21T07:22:13;20.00;68.30
72440;DHT22;60446;50.752;4.352;2023-08-21T07:24:40;20.10;68.30
72440;DHT22;60446;50.752;4.352;2023-08-21T07:27:07;20.10;68.40
72440;DHT22;60446;50.752;4.352;2023-08-21T07:29:34;20.10;68.70
72440;DHT22;60446;50.752;4.352;2023-08-21T07:32:02;20.20;68.30
72440;DHT22;60446;50.752;4.352;2023-08-21T07:34:29;20.30;68.40
72440;DHT22;60446;50.752;4.352;2023-08-21T07:36:56;20.30;67.70
72440;DHT22;60446;50.752;4.352;2023-08-21T07:39:26;20.40;68.20
72440;DHT22;60446;50.752;4.352;2023-08-21T07:41:53;20.40;68.30
72440;DHT22;60446;50.752;4.352;2023-08-21T07:44:20;20.40;68.20
72440;DHT22;60446;50.752;4.352;2023-08-21T07:46:48;20.50;67.00
72440;DHT22;60446;50.752;4.352;2023-08-21T07:49:15;20.60;68.00
72440;DHT22;60446;50.752;4.352;2023-08-21T07:51:42;20.60;68.20
72440;DHT22;60446;50.752;4.352;2023-08-21T07:54:09;20.60;68.70
72440;DHT22;60446;50.752;4.352;2023-08-21T07:56:37;20.60;68.50
72440;DHT22;60446;50.752;4.352;2023-08-21T07:59:06;20.70;68.30
72440;DHT22;60446;50.752;4.352;2023-08-21T08:01:33;20.70;68.30
72440;DHT22;60446;50.752;4.352;2023-08-21T08:04:01;20.80;68.70
72440;DHT22;60446;50.752;4.352;2023-08-21T08:06:28;20.80;68.40
72440;DHT22;60446;50.752;4.352;2023-08-21T08:08:55;21.00;68.00
72440;DHT22;60446;50.752;4.352;2023-08-21T08:11:23;21.00;67.40
72440;DHT22;60446;50.752;4.352;2023-08-21T08:13:50;21.10;67.80
72440;DHT22;60446;50.752;4.352;2023-08-21T08:16:17;21.10;68.00
72440;DHT22;60446;50.752;4.352;2023-08-21T08:18:45;21.20;68.00
72440;DHT22;60446;50.752;4.352;2023-08-21T08:21:12;21.20;67.40
72440;DHT22;60446;50.752;4.352;2023-08-21T08:23:39;21.30;67.10
72440;DHT22;60446;50.752;4.352;2023-08-21T08:26:06;21.30;67.00
72440;DHT22;60446;50.752;4.352;2023-08-21T08:28:35;21.40;66.00
72440;DHT22;60446;50.752;4.352;2023-08-21T08:31:02;21.40;65.70
72440;DHT22;60446;50.752;4.352;2023-08-21T08:33:29;21.30;66.50
72440;DHT22;60446;50.752;4.352;2023-08-21T08:35:58;21.40;66.10
72440;DHT22;60446;50.752;4.352;2023-08-21T08:38:25;21.40;67.00
72440;DHT22;60446;50.752;4.352;2023-08-21T08:40:53;21.50;66.50
72440;DHT22;60446;50.752;4.352;2023-08-21T08:43:25;21.70;65.70
72440;DHT22;60446;50.752;4.352;2023-08-21T08:45:52;21.80;67.00
72440;DHT22;60446;50.752;4.352;2023-08-21T08:48:22;21.80;66.90
72440;DHT22;60446;50.752;4.352;2023-08-21T08:50:51;21.90;65.60
72440;DHT22;60446;50.752;4.352;2023-08-21T08:53:18;22.00;64.50
72440;DHT22;60446;50.752;4.352;2023-08-21T08:55:47;22.10;65.40
72440;DHT22;60446;50.752;4.352;2023-08-21T08:58:15;22.10;64.80
72440;DHT22;60446;50.752;4.352;2023-08-21T09:00:43;22.10;65.10
72440;DHT22;60446;50.752;4.352;2023-08-21T09:03:10;22.10;65.80
72440;DHT22;60446;50.752;4.352;2023-08-21T09:05:39;22.20;64.20
72440;DHT22;60446;50.752;4.352;2023-08-21T09:08:12;22.10;64.60
72440;DHT22;60446;50.752;4.352;2023-08-21T09:10:41;22.30;65.70
72440;DHT22;60446;50.752;4.352;2023-08-21T09:13:17;22.30;64.90
72440;DHT22;60446;50.752;4.352;2023-08-21T09:15:53;22.40;64.90
72440;DHT22;60446;50.752;4.352;2023-08-21T09:18:21;22.40;65.10
72440;DHT22;60446;50.752;4.352;2023-08-21T09:20:48;22.40;63.30
72440;DHT22;60446;50.752;4.352;2023-08-21T09:23:17;22.40;62.10
72440;DHT22;60446;50.752;4.352;2023-08-21T09:25:47;22.50;62.70
72440;DHT22;60446;50.752;4.352;2023-08-21T09:28:20;22.50;61.40
72440;DHT22;60446;50.752;4.352;2023-08-21T09:30:54;22.60;60.00
72440;DHT22;60446;50.752;4.352;2023-08-21T09:33:23;22.70;60.70
72440;DHT22;60446;50.752;4.352;2023-08-21T09:35:52;22.80;59.60
72440;DHT22;60446;50.752;4.352;2023-08-21T09:38:19;23.00;58.00
72440;DHT22;60446;50.752;4.352;2023-08-21T09:40:52;22.90;60.20
72440;DHT22;60446;50.752;4.352;2023-08-21T09:43:22;22.90;59.70
72440;DHT22;60446;50.752;4.352;2023-08-21T09:45:52;23.00;57.30
72440;DHT22;60446;50.752;4.352;2023-08-21T09:48:22;23.10;55.90
72440;DHT22;60446;50.752;4.352;2023-08-21T09:50:59;23.10;55.80
72440;DHT22;60446;50.752;4.352;2023-08-21T09:53:31;23.10;56.90
72440;DHT22;60446;50.752;4.352;2023-08-21T09:56:00;23.30;56.30
72440;DHT22;60446;50.752;4.352;2023-08-21T09:58:30;23.30;56.80
72440;DHT22;60446;50.752;4.352;2023-08-21T10:00:59;23.30;57.10
72440;DHT22;60446;50.752;4.352;2023-08-21T10:03:27;23.30;58.40
72440;DHT22;60446;50.752;4.352;2023-08-21T10:05:58;23.40;57.20
72440;DHT22;60446;50.752;4.352;2023-08-21T10:08:26;23.50;54.40
72440;DHT22;60446;50.752;4.352;2023-08-21T10:10:55;23.50;56.80
72440;DHT22;60446;50.752;4.352;2023-08-21T10:13:23;23.50;55.80
72440;DHT22;60446;50.752;4.352;2023-08-21T10:15:51;23.50;55.60
72440;DHT22;60446;50.752;4.352;2023-08-21T10:18:29;23.70;56.20
72440;DHT22;60446;50.752;4.352;2023-08-21T10:21:20;23.90;56.20
72440;DHT22;60446;50.752;4.352;2023-08-21T10:23:50;24.00;54.20
72440;DHT22;60446;50.752;4.352;2023-08-21T10:26:20;24.00;56.40
72440;DHT22;60446;50.752;4.352;2023-08-21T10:28:54;24.10;54.10
72440;DHT22;60446;50.752;4.352;2023-08-21T10:31:40;24.20;55.80
72440;DHT22;60446;50.752;4.352;2023-08-21T10:34:13;24.40;55.80
72440;DHT22;60446;50.752;4.352;2023-08-21T10:41:58;24.40;56.00
72440;DHT22;60446;50.752;4.352;2023-08-21T10:49:59;24.80;54.90
72440;DHT22;60446;50.752;4.352;2023-08-21T10:52:29;25.00;51.00
72440;DHT22;60446;50.752;4.352;2023-08-21T10:55:00;25.00;50.50
72440;DHT22;60446;50.752;4.352;2023-08-21T10:57:30;25.00;50.30
72440;DHT22;60446;50.752;4.352;2023-08-21T10:59:59;25.00;51.20
72440;DHT22;60446;50.752;4.352;2023-08-21T11:02:28;25.00;52.20
72440;DHT22;60446;50.752;4.352;2023-08-21T11:04:57;25.10;52.90
72440;DHT22;60446;50.752;4.352;2023-08-21T11:07:25;25.20;50.90
72440;DHT22;60446;50.752;4.352;2023-08-21T11:09:54;25.20;51.80
72440;DHT22;60446;50.752;4.352;2023-08-21T11:12:22;25.30;51.10
72440;DHT22;60446;50.752;4.352;2023-08-21T11:14:51;25.30;49.70
72440;DHT22;60446;50.752;4.352;2023-08-21T11:17:19;25.20;50.40
72440;DHT22;60446;50.752;4.352;2023-08-21T11:19:50;25.20;50.60
72440;DHT22;60446;50.752;4.352;2023-08-21T11:22:19;25.00;50.40
72440;DHT22;60446;50.752;4.352;2023-08-21T11:24:47;25.00;52.40
72440;DHT22;60446;50.752;4.352;2023-08-21T11:27:17;24.90;52.30
72440;DHT22;60446;50.752;4.352;2023-08-21T11:29:46;25.10;52.70
72440;DHT22;60446;50.752;4.352;2023-08-21T11:32:23;25.20;51.80
72440;DHT22;60446;50.752;4.352;2023-08-21T11:34:55;25.00;50.30
72440;DHT22;60446;50.752;4.352;2023-08-21T11:37:27;24.80;50.90
72440;DHT22;60446;50.752;4.352;2023-08-21T11:39:56;24.80;50.60
72440;DHT22;60446;50.752;4.352;2023-08-21T11:42:34;24.80;52.80
72440;DHT22;60446;50.752;4.352;2023-08-21T11:45:02;25.00;52.00
72440;DHT22;60446;50.752;4.352;2023-08-21T11:47:31;25.10;52.40
72440;DHT22;60446;50.752;4.352;2023-08-21T11:50:05;25.50;54.20
72440;DHT22;60446;50.752;4.352;2023-08-21T11:52:36;25.80;51.00
72440;DHT22;60446;50.752;4.352;2023-08-21T11:55:08;25.80;50.00
72440;DHT22;60446;50.752;4.352;2023-08-21T11:57:50;25.80;50.20
72440;DHT22;60446;50.752;4.352;2023-08-21T12:00:19;25.70;50.80
72440;DHT22;60446;50.752;4.352;2023-08-21T12:02:59;25.60;49.60
72440;DHT22;60446;50.752;4.352;2023-08-21T12:05:28;25.50;50.20
72440;DHT22;60446;50.752;4.352;2023-08-21T12:07:55;25.50;50.60
72440;DHT22;60446;50.752;4.352;2023-08-21T12:12:51;25.60;50.90
72440;DHT22;60446;50.752;4.352;2023-08-21T12:15:20;25.70;53.10
72440;DHT22;60446;50.752;4.352;2023-08-21T12:17:47;25.80;51.20
72440;DHT22;60446;50.752;4.352;2023-08-21T12:20:14;25.80;49.70
72440;DHT22;60446;50.752;4.352;2023-08-21T12:22:41;25.80;51.60
72440;DHT22;60446;50.752;4.352;2023-08-21T12:25:09;25.80;52.70
72440;DHT22;60446;50.752;4.352;2023-08-21T12:27:37;25.90;51.70
72440;DHT22;60446;50.752;4.352;2023-08-21T12:30:05;26.10;52.20
72440;DHT22;60446;50.752;4.352;2023-08-21T12:32:33;26.20;50.60
72440;DHT22;60446;50.752;4.352;2023-08-21T12:35:00;26.30;49.90
72440;DHT22;60446;50.752;4.352;2023-08-21T12:37:28;26.20;50.50
72440;DHT22;60446;50.752;4.352;2023-08-21T12:39:55;26.30;49.40
72440;DHT22;60446;50.752;4.352;2023-08-21T12:42:22;26.40;49.60
72440;DHT22;60446;50.752;4.352;2023-08-21T12:44:49;26.40;48.70
72440;DHT22;60446;50.752;4.352;2023-08-21T12:47:16;26.40;49.40
72440;DHT22;60446;50.752;4.352;2023-08-21T12:49:43;26.60;51.60
72440;DHT22;60446;50.752;4.352;2023-08-21T12:52:13;26.80;49.70
72440;DHT22;60446;50.752;4.352;2023-08-21T12:54:41;27.00;53.20
72440;DHT22;60446;50.752;4.352;2023-08-21T12:57:09;27.20;50.90
72440;DHT22;60446;50.752;4.352;2023-08-21T12:59:38;27.20;49.70
72440;DHT22;60446;50.752;4.352;2023-08-21T13:02:05;27.10;50.70
72440;DHT22;60446;50.752;4.352;2023-08-21T13:04:33;27.20;49.30
72440;DHT22;60446;50.752;4.352;2023-08-21T13:07:00;27.20;47.40
72440;DHT22;60446;50.752;4.352;2023-08-21T13:09:28;27.20;45.90
72440;DHT22;60446;50.752;4.352;2023-08-21T13:11:55;27.10;46.20
72440;DHT22;60446;50.752;4.352;2023-08-21T13:14:22;27.00;48.60
72440;DHT22;60446;50.752;4.352;2023-08-21T13:16:50;26.90;46.10
72440;DHT22;60446;50.752;4.352;2023-08-21T13:19:17;26.80;47.00
72440;DHT22;60446;50.752;4.352;2023-08-21T13:21:44;26.70;48.00
72440;DHT22;60446;50.752;4.352;2023-08-21T13:24:12;26.60;49.60
72440;DHT22;60446;50.752;4.352;2023-08-21T13:26:39;26.40;49.50
72440;DHT22;60446;50.752;4.352;2023-08-21T13:29:06;26.50;50.70
72440;DHT22;60446;50.752;4.352;2023-08-21T13:31:34;26.40;47.90
72440;DHT22;60446;50.752;4.352;2023-08-21T13:34:02;26.50;49.30
72440;DHT22;60446;50.752;4.352;2023-08-21T13:36:30;26.60;49.30
72440;DHT22;60446;50.752;4.352;2023-08-21T13:38:57;26.80;49.50
72440;DHT22;60446;50.752;4.352;2023-08-21T13:41:24;27.00;46.60
72440;DHT22;60446;50.752;4.352;2023-08-21T13:43:52;27.10;45.50
72440;DHT22;60446;50.752;4.352;2023-08-21T13:46:21;27.10;48.60
72440;DHT22;60446;50.752;4.352;2023-08-21T13:48:48;27.10;47.40
72440;DHT22;60446;50.752;4.352;2023-08-21T13:51:15;27.20;46.20
72440;DHT22;60446;50.752;4.352;2023-08-21T13:53:46;27.20;46.50
72440;DHT22;60446;50.752;4.352;2023-08-21T13:56:13;27.20;45.60
72440;DHT22;60446;50.752;4.352;2023-08-21T13:58:41;27.30;45.60
72440;DHT22;60446;50.752;4.352;2023-08-21T14:01:08;27.20;47.00
72440;DHT22;60446;50.752;4.352;2023-08-21T14:03:36;27.40;45.90
72440;DHT22;60446;50.752;4.352;2023-08-21T14:06:03;27.40;47.30
72440;DHT22;60446;50.752;4.352;2023-08-21T14:08:30;27.50;49.10
72440;DHT22;60446;50.752;4.352;2023-08-21T14:10:57;27.70;47.90
72440;DHT22;60446;50.752;4.352;2023-08-21T14:13:25;27.90;48.90
72440;DHT22;60446;50.752;4.352;2023-08-21T14:15:52;28.00;46.40
72440;DHT22;60446;50.752;4.352;2023-08-21T14:18:19;28.00;46.50
72440;DHT22;60446;50.752;4.352;2023-08-21T14:20:47;28.20;48.60
72440;DHT22;60446;50.752;4.352;2023-08-21T14:23:14;28.40;45.40
72440;DHT22;60446;50.752;4.352;2023-08-21T14:25:41;28.40;46.30
72440;DHT22;60446;50.752;4.352;2023-08-21T14:28:09;28.50;45.30
72440;DHT22;60446;50.752;4.352;2023-08-21T14:30:42;28.40;45.50
72440;DHT22;60446;50.752;4.352;2023-08-21T14:33:09;28.50;44.30
72440;DHT22;60446;50.752;4.352;2023-08-21T14:35:37;28.80;46.10
72440;DHT22;60446;50.752;4.352;2023-08-21T14:38:04;28.90;42.20
72440;DHT22;60446;50.752;4.352;2023-08-21T14:40:33;28.90;43.30
72440;DHT22;60446;50.752;4.352;2023-08-21T14:43:00;29.10;44.30
72440;DHT22;60446;50.752;4.352;2023-08-21T14:45:27;29.30;41.50
72440;DHT22;60446;50.752;4.352;2023-08-21T14:47:56;29.50;40.10
72440;DHT22;60446;50.752;4.352;2023-08-21T14:50:23;29.70;42.70
72440;DHT22;60446;50.752;4.352;2023-08-21T14:52:50;30.40;39.30
72440;DHT22;60446;50.752;4.352;2023-08-21T14:55:17;30.90;38.20
72440;DHT22;60446;50.752;4.352;2023-08-21T14:57:44;31.40;38.10
72440;DHT22;60446;50.752;4.352;2023-08-21T15:00:12;32.00;38.50
72440;DHT22;60446;50.752;4.352;2023-08-21T15:02:42;32.70;37.00
72440;DHT22;60446;50.752;4.352;2023-08-21T15:05:09;33.40;38.10
72440;DHT22;60446;50.752;4.352;2023-08-21T15:07:38;34.10;37.80
72440;DHT22;60446;50.752;4.352;2023-08-21T15:10:09;34.40;37.50
72440;DHT22;60446;50.752;4.352;2023-08-21T15:12:36;34.10;37.70
72440;DHT22;60446;50.752;4.352;2023-08-21T15:15:04;34.50;33.90
72440;DHT22;60446;50.752;4.352;2023-08-21T15:17:33;34.60;35.30
72440;DHT22;60446;50.752;4.352;2023-08-21T15:20:01;34.60;33.50
72440;DHT22;60446;50.752;4.352;2023-08-21T15:22:31;34.60;35.40
72440;DHT22;60446;50.752;4.352;2023-08-21T15:24:58;35.00;35.10
72440;DHT22;60446;50.752;4.352;2023-08-21T15:27:25;34.80;33.50
72440;DHT22;60446;50.752;4.352;2023-08-21T15:29:53;34.50;33.50
72440;DHT22;60446;50.752;4.352;2023-08-21T15:32:20;34.60;34.90
72440;DHT22;60446;50.752;4.352;2023-08-21T15:34:47;34.70;33.80
72440;DHT22;60446;50.752;4.352;2023-08-21T15:37:17;34.50;33.50
72440;DHT22;60446;50.752;4.352;2023-08-21T15:39:44;34.80;34.70
72440;DHT22;60446;50.752;4.352;2023-08-21T15:42:11;35.20;33.60
72440;DHT22;60446;50.752;4.352;2023-08-21T15:44:38;35.40;32.30
72440;DHT22;60446;50.752;4.352;2023-08-21T15:47:05;35.20;32.40
72440;DHT22;60446;50.752;4.352;2023-08-21T15:49:53;35.20;32.80
72440;DHT22;60446;50.752;4.352;2023-08-21T15:52:20;35.00;33.30